sensor_id;sensor_type;location;lat;lon;timestamp;pressure;altitude;pressure_sealevel;temperature;humidity
77360;BME280;66426;51.454;7.266;2023-04-03T00:00:00;101423.56;;;2.37;75.98
77360;BME280;66426;51.454;7.266;2023-04-03T00:01:02;101428.84;;;2.25;76.33
77360;BME280;66426;51.454;7.266;2023-04-03T00:02:03;101431.41;;;2.09;76.67
77360;BME280;66426;51.454;7.266;2023-04-03T00:03:04;101434.88;;;1.88;77.36
77360;BME280;66426;51.454;7.266;2023-04-03T00:04:05;101433.97;;;1.85;77.59
77360;BME280;66426;51.454;7.266;2023-04-03T00:05:07;101439.44;;;2.15;77.23
77360;BME280;66426;51.454;7.266;2023-04-03T00:06:08;101439.41;;;2.09;76.52
77360;BME280;66426;51.454;7.266;2023-04-03T00:07:11;101446.41;;;1.97;77.01
77360;BME280;66426;51.454;7.266;2023-04-03T00:08:13;101445.59;;;2.08;77.21
77360;BME280;66426;51.454;7.266;2023-04-03T00:09:14;101442.19;;;2.38;76.75
77360;BME280;66426;51.454;7.266;2023-04-03T00:10:15;101439.59;;;2.58;75.84
77360;BME280;66426;51.454;7.266;2023-04-03T00:11:16;101443.19;;;2.77;75.10
77360;BME280;66426;51.454;7.266;2023-04-03T00:12:18;101441.44;;;2.87;74.58
77360;BME280;66426;51.454;7.266;2023-04-03T00:13:19;101437.00;;;2.91;74.07
77360;BME280;66426;51.454;7.266;2023-04-03T00:14:20;101446.75;;;2.90;74.01
77360;BME280;66426;51.454;7.266;2023-04-03T00:15:22;101448.53;;;2.93;73.72
77360;BME280;66426;51.454;7.266;2023-04-03T00:16:23;101438.75;;;2.84;73.68
77360;BME280;66426;51.454;7.266;2023-04-03T00:17:25;101443.19;;;2.87;73.70
77360;BME280;66426;51.454;7.266;2023-04-03T00:18:25;101438.75;;;2.86;73.57
77360;BME280;66426;51.454;7.266;2023-04-03T00:19:26;101439.66;;;2.88;73.73
77360;BME280;66426;51.454;7.266;2023-04-03T00:20:27;101443.09;;;2.48;74.24
77360;BME280;66426;51.454;7.266;2023-04-03T00:21:28;101444.84;;;2.38;75.06
77360;BME280;66426;51.454;7.266;2023-04-03T00:22:29;101437.66;;;2.19;75.58
77360;BME280;66426;51.454;7.266;2023-04-03T00:23:30;101447.53;;;2.57;75.40
77360;BME280;66426;51.454;7.266;2023-04-03T00:24:31;101455.59;;;2.75;74.91
77360;BME280;66426;51.454;7.266;2023-04-03T00:25:33;101444.94;;;2.68;74.59
77360;BME280;66426;51.454;7.266;2023-04-03T00:26:34;101443.16;;;2.71;74.43
77360;BME280;66426;51.454;7.266;2023-04-03T00:27:36;101443.16;;;2.65;74.58
77360;BME280;66426;51.454;7.266;2023-04-03T00:28:36;101440.50;;;2.79;74.28
77360;BME280;66426;51.454;7.266;2023-04-03T00:29:37;101441.44;;;2.87;73.87
77360;BME280;66426;51.454;7.266;2023-04-03T00:30:40;101440.53;;;2.96;73.71
77360;BME280;66426;51.454;7.266;2023-04-03T00:31:40;101444.94;;;2.81;73.73
77360;BME280;66426;51.454;7.266;2023-04-03T00:32:41;101437.81;;;2.61;74.46
77360;BME280;66426;51.454;7.266;2023-04-03T00:33:42;101442.22;;;2.46;75.34
77360;BME280;66426;51.454;7.266;2023-04-03T00:34:43;101436.88;;;2.46;75.70
77360;BME280;66426;51.454;7.266;2023-04-03T00:35:44;101445.75;;;2.37;76.24
77360;BME280;66426;51.454;7.266;2023-04-03T00:36:45;101444.03;;;2.58;75.60
77360;BME280;66426;51.454;7.266;2023-04-03T00:37:46;101447.50;;;2.35;75.61
77360;BME280;66426;51.454;7.266;2023-04-03T00:38:47;101452.69;;;2.08;76.71
77360;BME280;66426;51.454;7.266;2023-04-03T00:39:48;101443.97;;;2.41;76.41
77360;BME280;66426;51.454;7.266;2023-04-03T00:40:49;101450.13;;;2.25;76.32
77360;BME280;66426;51.454;7.266;2023-04-03T00:41:50;101452.69;;;2.08;76.97
77360;BME280;66426;51.454;7.266;2023-04-03T00:42:55;101449.97;;;1.99;77.45
77360;BME280;66426;51.454;7.266;2023-04-03T00:43:56;101449.06;;;1.87;78.20
77360;BME280;66426;51.454;7.266;2023-04-03T00:45:27;101454.47;;;2.06;77.58
77360;BME280;66426;51.454;7.266;2023-04-03T00:46:31;101448.16;;;1.85;77.33
77360;BME280;66426;51.454;7.266;2023-04-03T00:47:32;101457.88;;;1.80;77.91
77360;BME280;66426;51.454;7.266;2023-04-03T00:48:35;101456.97;;;1.78;78.22
77360;BME280;66426;51.454;7.266;2023-04-03T00:49:38;101450.72;;;1.75;78.21
77360;BME280;66426;51.454;7.266;2023-04-03T00:50:41;101460.44;;;1.65;78.90
77360;BME280;66426;51.454;7.266;2023-04-03T00:51:43;101454.19;;;1.64;79.18
77360;BME280;66426;51.454;7.266;2023-04-03T00:52:44;101452.47;;;1.68;78.96
77360;BME280;66426;51.454;7.266;2023-04-03T00:53:50;101451.50;;;1.57;78.93
77360;BME280;66426;51.454;7.266;2023-04-03T00:54:54;101456.03;;;1.70;78.62
77360;BME280;66426;51.454;7.266;2023-04-03T00:55:58;101455.22;;;1.80;78.31
77360;BME280;66426;51.454;7.266;2023-04-03T00:57:00;101457.91;;;1.88;77.61
77360;BME280;66426;51.454;7.266;2023-04-03T00:58:01;101458.03;;;2.08;77.25
77360;BME280;66426;51.454;7.266;2023-04-03T00:59:05;101457.13;;;2.07;77.22
77360;BME280;66426;51.454;7.266;2023-04-03T01:00:11;101447.41;;;2.14;77.13
77360;BME280;66426;51.454;7.266;2023-04-03T01:01:16;101447.44;;;2.23;76.64
77360;BME280;66426;51.454;7.266;2023-04-03T01:02:19;101450.91;;;2.08;77.03
77360;BME280;66426;51.454;7.266;2023-04-03T01:03:20;101452.78;;;2.26;76.80
77360;BME280;66426;51.454;7.266;2023-04-03T01:04:26;101445.75;;;2.45;76.20
77360;BME280;66426;51.454;7.266;2023-04-03T01:05:28;101447.41;;;2.17;76.24
77360;BME280;66426;51.454;7.266;2023-04-03T01:06:32;101452.66;;;2.03;76.96
77360;BME280;66426;51.454;7.266;2023-04-03T01:07:34;101449.97;;;1.97;77.28
77360;BME280;66426;51.454;7.266;2023-04-03T01:08:38;101452.66;;;2.00;77.54
77360;BME280;66426;51.454;7.266;2023-04-03T01:09:39;101447.47;;;2.28;76.94
77360;BME280;66426;51.454;7.266;2023-04-03T01:10:40;101451.97;;;2.43;75.91
77360;BME280;66426;51.454;7.266;2023-04-03T01:11:41;101457.25;;;2.40;75.62
77360;BME280;66426;51.454;7.266;2023-04-03T01:12:44;101451.09;;;2.56;75.28
77360;BME280;66426;51.454;7.266;2023-04-03T01:13:45;101456.44;;;2.61;74.92
77360;BME280;66426;51.454;7.266;2023-04-03T01:14:49;101458.19;;;2.57;74.49
77360;BME280;66426;51.454;7.266;2023-04-03T01:15:51;101463.50;;;2.54;74.62
77360;BME280;66426;51.454;7.266;2023-04-03T01:16:52;101457.34;;;2.66;74.45
77360;BME280;66426;51.454;7.266;2023-04-03T01:17:55;101456.41;;;2.54;74.66
77360;BME280;66426;51.454;7.266;2023-04-03T01:18:57;101456.41;;;2.45;75.19
77360;BME280;66426;51.454;7.266;2023-04-03T01:20:35;101456.44;;;2.56;74.80
77360;BME280;66426;51.454;7.266;2023-04-03T01:22:02;101456.44;;;2.53;74.43
77360;BME280;66426;51.454;7.266;2023-04-03T01:23:25;101461.78;;;2.65;74.49
77360;BME280;66426;51.454;7.266;2023-04-03T01:24:33;101461.75;;;2.59;74.47
77360;BME280;66426;51.454;7.266;2023-04-03T01:25:36;101464.41;;;2.56;74.61
77360;BME280;66426;51.454;7.266;2023-04-03T01:26:38;101465.28;;;2.59;74.45
77360;BME280;66426;51.454;7.266;2023-04-03T01:27:40;101460.84;;;2.51;74.82
77360;BME280;66426;51.454;7.266;2023-04-03T01:28:41;101462.66;;;2.58;74.93
77360;BME280;66426;51.454;7.266;2023-04-03T01:29:42;101456.41;;;2.54;74.93
77360;BME280;66426;51.454;7.266;2023-04-03T01:30:48;101463.53;;;2.55;74.61
77360;BME280;66426;51.454;7.266;2023-04-03T01:31:53;101462.59;;;2.46;75.13
77360;BME280;66426;51.454;7.266;2023-04-03T01:32:55;101465.25;;;2.38;75.32
77360;BME280;66426;51.454;7.266;2023-04-03T01:33:55;101467.91;;;2.35;75.54
77360;BME280;66426;51.454;7.266;2023-04-03T01:34:56;101461.69;;;2.37;75.43
77360;BME280;66426;51.454;7.266;2023-04-03T01:35:57;101456.41;;;2.51;75.14
77360;BME280;66426;51.454;7.266;2023-04-03T01:36:58;101456.44;;;2.57;74.91
77360;BME280;66426;51.454;7.266;2023-04-03T01:37:59;101456.41;;;2.54;75.23
77360;BME280;66426;51.454;7.266;2023-04-03T01:39:00;101461.75;;;2.59;74.73
77360;BME280;66426;51.454;7.266;2023-04-03T01:40:01;101466.16;;;2.54;74.55
77360;BME280;66426;51.454;7.266;2023-04-03T01:41:02;101460.84;;;2.57;74.64
77360;BME280;66426;51.454;7.266;2023-04-03T01:42:03;101459.13;;;2.62;74.59
77360;BME280;66426;51.454;7.266;2023-04-03T01:43:05;101455.53;;;2.52;74.87
77360;BME280;66426;51.454;7.266;2023-04-03T01:44:06;101459.00;;;2.28;75.69
77360;BME280;66426;51.454;7.266;2023-04-03T01:45:07;101459.91;;;2.40;75.58
77360;BME280;66426;51.454;7.266;2023-04-03T01:46:09;101452.88;;;2.45;75.13
77360;BME280;66426;51.454;7.266;2023-04-03T01:47:11;101458.06;;;2.22;75.70
77360;BME280;66426;51.454;7.266;2023-04-03T01:48:12;101459.88;;;2.27;75.82
77360;BME280;66426;51.454;7.266;2023-04-03T01:49:13;101456.38;;;2.39;75.23
77360;BME280;66426;51.454;7.266;2023-04-03T01:50:14;101458.13;;;2.34;75.36
77360;BME280;66426;51.454;7.266;2023-04-03T01:51:16;101452.88;;;2.48;75.15
77360;BME280;66426;51.454;7.266;2023-04-03T01:52:17;101454.56;;;2.29;75.49
77360;BME280;66426;51.454;7.266;2023-04-03T01:53:18;101459.69;;;1.90;76.59
77360;BME280;66426;51.454;7.266;2023-04-03T01:54:18;101464.00;;;1.71;77.82
77360;BME280;66426;51.454;7.266;2023-04-03T01:55:19;101466.66;;;1.75;78.05
77360;BME280;66426;51.454;7.266;2023-04-03T01:56:20;101459.72;;;1.98;77.22
77360;BME280;66426;51.454;7.266;2023-04-03T01:57:21;101459.81;;;2.10;77.07
77360;BME280;66426;51.454;7.266;2023-04-03T01:58:22;101455.44;;;2.29;76.00
77360;BME280;66426;51.454;7.266;2023-04-03T01:59:23;101461.63;;;2.24;75.16
77360;BME280;66426;51.454;7.266;2023-04-03T02:00:24;101460.72;;;2.19;75.46
77360;BME280;66426;51.454;7.266;2023-04-03T02:01:25;101463.44;;;2.31;75.42
77360;BME280;66426;51.454;7.266;2023-04-03T02:02:27;101465.19;;;2.32;75.01
77360;BME280;66426;51.454;7.266;2023-04-03T02:03:28;101467.00;;;2.39;74.78
77360;BME280;66426;51.454;7.266;2023-04-03T02:04:29;101465.13;;;2.16;74.90
77360;BME280;66426;51.454;7.266;2023-04-03T02:05:30;101463.38;;;2.12;75.56
77360;BME280;66426;51.454;7.266;2023-04-03T02:06:31;101464.19;;;2.04;75.59
77360;BME280;66426;51.454;7.266;2023-04-03T02:07:32;101464.25;;;2.13;75.56
77360;BME280;66426;51.454;7.266;2023-04-03T02:08:33;101466.81;;;1.99;76.12
77360;BME280;66426;51.454;7.266;2023-04-03T02:09:34;101466.91;;;2.13;75.22
77360;BME280;66426;51.454;7.266;2023-04-03T02:10:35;101464.25;;;2.16;75.59
77360;BME280;66426;51.454;7.266;2023-04-03T02:11:36;101472.28;;;2.28;75.22
77360;BME280;66426;51.454;7.266;2023-04-03T02:12:37;101464.22;;;2.10;75.40
77360;BME280;66426;51.454;7.266;2023-04-03T02:13:38;101467.78;;;2.16;75.31
77360;BME280;66426;51.454;7.266;2023-04-03T02:14:39;101463.31;;;2.09;75.21
77360;BME280;66426;51.454;7.266;2023-04-03T02:15:40;101471.31;;;2.14;74.92
77360;BME280;66426;51.454;7.266;2023-04-03T02:16:41;101466.13;;;2.35;74.26
77360;BME280;66426;51.454;7.266;2023-04-03T02:17:43;101474.09;;;2.35;74.21
77360;BME280;66426;51.454;7.266;2023-04-03T02:18:44;101469.63;;;2.22;74.12
77360;BME280;66426;51.454;7.266;2023-04-03T02:19:45;101466.88;;;2.11;74.32
77360;BME280;66426;51.454;7.266;2023-04-03T02:20:46;101465.19;;;2.23;74.54
77360;BME280;66426;51.454;7.266;2023-04-03T02:21:47;101470.47;;;2.18;74.59
77360;BME280;66426;51.454;7.266;2023-04-03T02:22:48;101473.09;;;2.10;74.99
77360;BME280;66426;51.454;7.266;2023-04-03T02:23:49;101474.88;;;2.10;74.90
77360;BME280;66426;51.454;7.266;2023-04-03T02:24:50;101477.56;;;2.18;74.67
77360;BME280;66426;51.454;7.266;2023-04-03T02:25:52;101471.34;;;2.17;74.37
77360;BME280;66426;51.454;7.266;2023-04-03T02:26:53;101479.31;;;2.15;74.73
77360;BME280;66426;51.454;7.266;2023-04-03T02:27:54;101476.69;;;2.20;74.07
77360;BME280;66426;51.454;7.266;2023-04-03T02:28:55;101477.53;;;2.10;74.58
77360;BME280;66426;51.454;7.266;2023-04-03T02:29:56;101481.94;;;2.08;74.38
77360;BME280;66426;51.454;7.266;2023-04-03T02:30:57;101483.78;;;2.23;73.96
77360;BME280;66426;51.454;7.266;2023-04-03T02:31:57;101483.78;;;2.24;73.99
77360;BME280;66426;51.454;7.266;2023-04-03T02:33:00;101491.56;;;1.87;74.74
77360;BME280;66426;51.454;7.266;2023-04-03T02:34:01;101488.00;;;1.85;74.80
77360;BME280;66426;51.454;7.266;2023-04-03T02:35:02;101493.34;;;1.90;74.87
77360;BME280;66426;51.454;7.266;2023-04-03T02:36:05;101489.72;;;1.79;75.10
77360;BME280;66426;51.454;7.266;2023-04-03T02:37:06;101486.28;;;1.97;75.32
77360;BME280;66426;51.454;7.266;2023-04-03T02:38:07;101481.09;;;2.18;74.69
77360;BME280;66426;51.454;7.266;2023-04-03T02:39:08;101481.94;;;2.08;74.68
77360;BME280;66426;51.454;7.266;2023-04-03T02:40:09;101487.19;;;1.97;74.91
77360;BME280;66426;51.454;7.266;2023-04-03T02:41:12;101489.84;;;1.99;74.95
77360;BME280;66426;51.454;7.266;2023-04-03T02:42:13;101482.75;;;1.99;74.84
77360;BME280;66426;51.454;7.266;2023-04-03T02:43:14;101485.34;;;1.82;75.18
77360;BME280;66426;51.454;7.266;2023-04-03T02:44:16;101481.03;;;2.03;75.61
77360;BME280;66426;51.454;7.266;2023-04-03T02:45:17;101487.25;;;2.05;74.73
77360;BME280;66426;51.454;7.266;2023-04-03T02:46:17;101487.28;;;2.12;74.92
77360;BME280;66426;51.454;7.266;2023-04-03T02:47:18;101487.22;;;2.02;74.93
77360;BME280;66426;51.454;7.266;2023-04-03T02:48:21;101493.38;;;1.93;74.93
77360;BME280;66426;51.454;7.266;2023-04-03T02:49:22;101496.97;;;2.04;74.50
77360;BME280;66426;51.454;7.266;2023-04-03T02:50:22;101500.53;;;2.06;74.18
77360;BME280;66426;51.454;7.266;2023-04-03T02:51:23;101501.44;;;2.10;74.39
77360;BME280;66426;51.454;7.266;2023-04-03T02:52:25;101497.06;;;2.18;74.22
77360;BME280;66426;51.454;7.266;2023-04-03T02:53:25;101491.66;;;2.04;74.41
77360;BME280;66426;51.454;7.266;2023-04-03T02:54:26;101499.69;;;2.16;73.96
77360;BME280;66426;51.454;7.266;2023-04-03T02:55:31;101494.41;;;2.18;73.84
77360;BME280;66426;51.454;7.266;2023-04-03T02:56:32;101496.16;;;2.19;74.08
77360;BME280;66426;51.454;7.266;2023-04-03T02:57:33;101492.59;;;2.12;74.01
77360;BME280;66426;51.454;7.266;2023-04-03T02:58:33;101497.91;;;2.12;74.31
77360;BME280;66426;51.454;7.266;2023-04-03T02:59:34;101493.53;;;2.24;74.03
77360;BME280;66426;51.454;7.266;2023-04-03T03:00:35;101497.88;;;2.09;73.92
77360;BME280;66426;51.454;7.266;2023-04-03T03:01:36;101494.28;;;1.98;74.13
77360;BME280;66426;51.454;7.266;2023-04-03T03:02:37;101496.94;;;1.95;74.26
77360;BME280;66426;51.454;7.266;2023-04-03T03:03:39;101498.56;;;1.76;75.12
77360;BME280;66426;51.454;7.266;2023-04-03T03:04:40;101502.25;;;1.95;74.56
77360;BME280;66426;51.454;7.266;2023-04-03T03:05:41;101501.38;;;2.01;74.20
77360;BME280;66426;51.454;7.266;2023-04-03T03:06:42;101496.06;;;1.99;74.26
77360;BME280;66426;51.454;7.266;2023-04-03T03:07:43;101494.28;;;2.01;73.95
77360;BME280;66426;51.454;7.266;2023-04-03T03:08:44;101495.09;;;1.85;74.44
77360;BME280;66426;51.454;7.266;2023-04-03T03:09:45;101498.63;;;1.84;74.56
77360;BME280;66426;51.454;7.266;2023-04-03T03:10:46;101496.81;;;1.75;75.11
77360;BME280;66426;51.454;7.266;2023-04-03T03:11:47;101496.03;;;1.90;74.41
77360;BME280;66426;51.454;7.266;2023-04-03T03:12:48;101492.53;;;2.00;74.50
77360;BME280;66426;51.454;7.266;2023-04-03T03:13:49;101493.28;;;1.78;74.54
77360;BME280;66426;51.454;7.266;2023-04-03T03:14:50;101494.09;;;1.69;74.85
77360;BME280;66426;51.454;7.266;2023-04-03T03:15:51;101500.38;;;1.80;74.34
77360;BME280;66426;51.454;7.266;2023-04-03T03:16:52;101491.50;;;1.75;74.79
77360;BME280;66426;51.454;7.266;2023-04-03T03:17:53;101496.75;;;1.72;74.73
77360;BME280;66426;51.454;7.266;2023-04-03T03:18:55;101496.84;;;1.83;74.31
77360;BME280;66426;51.454;7.266;2023-04-03T03:19:56;101498.75;;;2.04;73.21
77360;BME280;66426;51.454;7.266;2023-04-03T03:20:58;101493.41;;;1.98;73.72
77360;BME280;66426;51.454;7.266;2023-04-03T03:22:00;101495.16;;;1.92;73.67
77360;BME280;66426;51.454;7.266;2023-04-03T03:23:01;101496.03;;;1.94;73.90
77360;BME280;66426;51.454;7.266;2023-04-03T03:24:01;101502.25;;;1.95;73.49
77360;BME280;66426;51.454;7.266;2023-04-03T03:25:03;101494.28;;;2.00;73.05
77360;BME280;66426;51.454;7.266;2023-04-03T03:26:07;101496.94;;;2.00;73.00
77360;BME280;66426;51.454;7.266;2023-04-03T03:27:08;101497.81;;;1.99;72.98
77360;BME280;66426;51.454;7.266;2023-04-03T03:28:09;101496.84;;;1.83;73.32
77360;BME280;66426;51.454;7.266;2023-04-03T03:29:10;101494.00;;;1.60;74.27
77360;BME280;66426;51.454;7.266;2023-04-03T03:30:12;101499.38;;;1.63;74.23
77360;BME280;66426;51.454;7.266;2023-04-03T03:31:13;101499.41;;;1.69;74.06
77360;BME280;66426;51.454;7.266;2023-04-03T03:32:14;101498.31;;;1.42;74.63
77360;BME280;66426;51.454;7.266;2023-04-03T03:33:15;101492.22;;;1.53;74.85
77360;BME280;66426;51.454;7.266;2023-04-03T03:34:17;101499.09;;;1.27;74.98
77360;BME280;66426;51.454;7.266;2023-04-03T03:35:18;101491.31;;;1.54;75.24
77360;BME280;66426;51.454;7.266;2023-04-03T03:36:19;101494.94;;;1.63;74.44
77360;BME280;66426;51.454;7.266;2023-04-03T03:37:20;101503.00;;;1.77;74.19
77360;BME280;66426;51.454;7.266;2023-04-03T03:38:22;101503.91;;;1.78;74.49
77360;BME280;66426;51.454;7.266;2023-04-03T03:39:23;101496.03;;;1.93;73.80
77360;BME280;66426;51.454;7.266;2023-04-03T03:40:24;101500.53;;;2.05;73.03
77360;BME280;66426;51.454;7.266;2023-04-03T03:41:25;101495.09;;;1.89;73.18
77360;BME280;66426;51.454;7.266;2023-04-03T03:42:26;101495.09;;;1.85;72.74
77360;BME280;66426;51.454;7.266;2023-04-03T03:43:27;101496.84;;;1.84;72.90
77360;BME280;66426;51.454;7.266;2023-04-03T03:44:28;101503.09;;;1.88;73.07
77360;BME280;66426;51.454;7.266;2023-04-03T03:45:29;101500.41;;;1.83;73.30
77360;BME280;66426;51.454;7.266;2023-04-03T03:46:31;101497.50;;;1.54;73.76
77360;BME280;66426;51.454;7.266;2023-04-03T03:47:32;101502.84;;;1.57;74.39
77360;BME280;66426;51.454;7.266;2023-04-03T03:48:33;101494.00;;;1.57;74.08
77360;BME280;66426;51.454;7.266;2023-04-03T03:49:35;101492.22;;;1.57;74.44
77360;BME280;66426;51.454;7.266;2023-04-03T03:50:36;101496.81;;;1.75;73.60
77360;BME280;66426;51.454;7.266;2023-04-03T03:51:37;101497.75;;;1.85;73.00
77360;BME280;66426;51.454;7.266;2023-04-03T03:52:38;101503.66;;;1.47;74.45
77360;BME280;66426;51.454;7.266;2023-04-03T03:53:39;101494.03;;;1.61;74.24
77360;BME280;66426;51.454;7.266;2023-04-03T03:54:40;101500.34;;;1.76;74.07
77360;BME280;66426;51.454;7.266;2023-04-03T03:55:41;101497.78;;;1.88;73.49
77360;BME280;66426;51.454;7.266;2023-04-03T03:56:42;101492.25;;;1.62;73.78
77360;BME280;66426;51.454;7.266;2023-04-03T03:57:43;101496.84;;;1.84;73.59
77360;BME280;66426;51.454;7.266;2023-04-03T03:58:44;101495.09;;;1.86;73.04
77360;BME280;66426;51.454;7.266;2023-04-03T03:59:45;101499.53;;;1.87;73.05
77360;BME280;66426;51.454;7.266;2023-04-03T04:00:46;101498.53;;;1.75;73.51
77360;BME280;66426;51.454;7.266;2023-04-03T04:01:47;101499.47;;;1.78;73.22
77360;BME280;66426;51.454;7.266;2023-04-03T04:02:48;101512.53;;;1.50;74.09
77360;BME280;66426;51.454;7.266;2023-04-03T04:03:49;101498.56;;;1.73;73.32
77360;BME280;66426;51.454;7.266;2023-04-03T04:04:51;101503.00;;;1.79;73.13
77360;BME280;66426;51.454;7.266;2023-04-03T04:05:52;101505.59;;;1.68;73.51
77360;BME280;66426;51.454;7.266;2023-04-03T04:06:53;101499.41;;;1.67;73.96
77360;BME280;66426;51.454;7.266;2023-04-03T04:07:54;101506.59;;;1.82;73.64
77360;BME280;66426;51.454;7.266;2023-04-03T04:08:55;101503.94;;;1.85;73.21
77360;BME280;66426;51.454;7.266;2023-04-03T04:09:56;101505.72;;;1.85;73.23
77360;BME280;66426;51.454;7.266;2023-04-03T04:10:57;101504.72;;;1.70;73.92
77360;BME280;66426;51.454;7.266;2023-04-03T04:11:58;101501.16;;;1.62;73.79
77360;BME280;66426;51.454;7.266;2023-04-03T04:12:58;101501.97;;;1.57;74.28
77360;BME280;66426;51.454;7.266;2023-04-03T04:14:00;101500.19;;;1.56;74.11
77360;BME280;66426;51.454;7.266;2023-04-03T04:15:01;101503.75;;;1.59;74.13
77360;BME280;66426;51.454;7.266;2023-04-03T04:16:02;101505.59;;;1.65;74.46
77360;BME280;66426;51.454;7.266;2023-04-03T04:17:02;101504.72;;;1.67;74.01
77360;BME280;66426;51.454;7.266;2023-04-03T04:18:03;101507.38;;;1.67;73.42
77360;BME280;66426;51.454;7.266;2023-04-03T04:19:05;101509.88;;;1.49;73.92
77360;BME280;66426;51.454;7.266;2023-04-03T04:20:08;101508.94;;;1.44;74.17
77360;BME280;66426;51.454;7.266;2023-04-03T04:21:09;101499.31;;;1.60;73.46
77360;BME280;66426;51.454;7.266;2023-04-03T04:22:10;101510.91;;;1.69;73.37
77360;BME280;66426;51.454;7.266;2023-04-03T04:23:10;101510.09;;;1.80;72.72
77360;BME280;66426;51.454;7.266;2023-04-03T04:24:11;101508.19;;;1.62;73.19
77360;BME280;66426;51.454;7.266;2023-04-03T04:25:12;101511.75;;;1.61;73.81
77360;BME280;66426;51.454;7.266;2023-04-03T04:26:13;101513.50;;;1.62;73.50
77360;BME280;66426;51.454;7.266;2023-04-03T04:27:14;101513.34;;;1.40;73.59
77360;BME280;66426;51.454;7.266;2023-04-03T04:28:17;101512.38;;;1.31;74.21
77360;BME280;66426;51.454;7.266;2023-04-03T04:29:18;101510.56;;;1.29;74.87
77360;BME280;66426;51.454;7.266;2023-04-03T04:30:18;101519.53;;;1.39;74.37
77360;BME280;66426;51.454;7.266;2023-04-03T04:31:19;101514.97;;;1.23;74.69
77360;BME280;66426;51.454;7.266;2023-04-03T04:32:20;101519.56;;;1.42;74.79
77360;BME280;66426;51.454;7.266;2023-04-03T04:33:21;101519.50;;;1.36;74.29
77360;BME280;66426;51.454;7.266;2023-04-03T04:34:22;101512.53;;;1.50;73.98
77360;BME280;66426;51.454;7.266;2023-04-03T04:35:24;101522.19;;;1.41;73.96
77360;BME280;66426;51.454;7.266;2023-04-03T04:36:25;101515.97;;;1.36;73.80
77360;BME280;66426;51.454;7.266;2023-04-03T04:37:26;101516.84;;;1.36;74.26
77360;BME280;66426;51.454;7.266;2023-04-03T04:38:27;101517.56;;;1.18;74.75
77360;BME280;66426;51.454;7.266;2023-04-03T04:39:28;101523.78;;;1.22;75.06
77360;BME280;66426;51.454;7.266;2023-04-03T04:40:30;101524.00;;;1.43;73.99
77360;BME280;66426;51.454;7.266;2023-04-03T04:41:31;101523.09;;;1.41;73.95
77360;BME280;66426;51.454;7.266;2023-04-03T04:42:31;101521.09;;;1.16;74.25
77360;BME280;66426;51.454;7.266;2023-04-03T04:43:32;101520.19;;;1.15;74.83
77360;BME280;66426;51.454;7.266;2023-04-03T04:44:34;101529.09;;;1.20;74.98
77360;BME280;66426;51.454;7.266;2023-04-03T04:45:35;101526.72;;;1.54;74.14
77360;BME280;66426;51.454;7.266;2023-04-03T04:46:36;101527.75;;;1.68;73.38
77360;BME280;66426;51.454;7.266;2023-04-03T04:47:36;101533.84;;;1.58;73.29
77360;BME280;66426;51.454;7.266;2023-04-03T04:48:37;101531.19;;;1.57;73.51
77360;BME280;66426;51.454;7.266;2023-04-03T04:49:38;101537.28;;;1.46;73.65
77360;BME280;66426;51.454;7.266;2023-04-03T04:50:40;101544.31;;;1.41;74.08
77360;BME280;66426;51.454;7.266;2023-04-03T04:51:41;101536.47;;;1.54;73.63
77360;BME280;66426;51.454;7.266;2023-04-03T04:52:42;101536.50;;;1.58;73.34
77360;BME280;66426;51.454;7.266;2023-04-03T04:53:43;101531.19;;;1.55;73.31
77360;BME280;66426;51.454;7.266;2023-04-03T04:54:44;101539.09;;;1.52;73.59
77360;BME280;66426;51.454;7.266;2023-04-03T04:55:45;101537.41;;;1.59;73.50
77360;BME280;66426;51.454;7.266;2023-04-03T04:56:46;101539.09;;;1.52;73.45
77360;BME280;66426;51.454;7.266;2023-04-03T04:57:47;101537.31;;;1.49;73.25
77360;BME280;66426;51.454;7.266;2023-04-03T04:58:48;101534.59;;;1.40;74.29
77360;BME280;66426;51.454;7.266;2023-04-03T04:59:49;101533.78;;;1.47;73.75
77360;BME280;66426;51.454;7.266;2023-04-03T05:00:50;101545.38;;;1.59;73.22
77360;BME280;66426;51.454;7.266;2023-04-03T05:01:58;101542.69;;;1.57;73.29
77360;BME280;66426;51.454;7.266;2023-04-03T05:02:59;101549.78;;;1.55;72.95
77360;BME280;66426;51.454;7.266;2023-04-03T05:04:00;101541.81;;;1.57;72.55
77360;BME280;66426;51.454;7.266;2023-04-03T05:05:01;101547.06;;;1.50;72.86
77360;BME280;66426;51.454;7.266;2023-04-03T05:06:04;101549.66;;;1.43;73.13
77360;BME280;66426;51.454;7.266;2023-04-03T05:07:05;101554.09;;;1.44;73.14
77360;BME280;66426;51.454;7.266;2023-04-03T05:08:06;101553.25;;;1.48;73.79
77360;BME280;66426;51.454;7.266;2023-04-03T05:09:08;101541.69;;;1.43;73.15
77360;BME280;66426;51.454;7.266;2023-04-03T05:10:10;101553.22;;;1.45;73.10
77360;BME280;66426;51.454;7.266;2023-04-03T05:11:11;101544.41;;;1.50;73.22
77360;BME280;66426;51.454;7.266;2023-04-03T05:12:12;101552.22;;;1.34;73.59
77360;BME280;66426;51.454;7.266;2023-04-03T05:13:14;101553.78;;;1.13;74.48
77360;BME280;66426;51.454;7.266;2023-04-03T05:14:15;101556.66;;;1.36;74.24
77360;BME280;66426;51.454;7.266;2023-04-03T05:15:16;101559.28;;;1.35;74.37
77360;BME280;66426;51.454;7.266;2023-04-03T05:16:17;101553.94;;;1.28;74.10
77360;BME280;66426;51.454;7.266;2023-04-03T05:17:18;101557.47;;;1.29;73.93
77360;BME280;66426;51.454;7.266;2023-04-03T05:18:19;101555.03;;;1.47;73.74
77360;BME280;66426;51.454;7.266;2023-04-03T05:19:20;101560.19;;;1.34;73.75
77360;BME280;66426;51.454;7.266;2023-04-03T05:20:21;101555.56;;;1.14;74.70
77360;BME280;66426;51.454;7.266;2023-04-03T05:21:23;101561.19;;;1.45;73.94
77360;BME280;66426;51.454;7.266;2023-04-03T05:22:26;101563.03;;;1.57;73.12
77360;BME280;66426;51.454;7.266;2023-04-03T05:23:27;101562.19;;;1.58;73.10
77360;BME280;66426;51.454;7.266;2023-04-03T05:24:28;101565.69;;;1.54;73.66
77360;BME280;66426;51.454;7.266;2023-04-03T05:25:29;101567.38;;;1.45;73.97
77360;BME280;66426;51.454;7.266;2023-04-03T05:26:31;101565.22;;;1.06;75.02